Time;durP1;ratioP1;P1;durP2;ratioP2;P2;SDS_P1;SDS_P2;PMS_P1;PMS_P2;Temp;Humidity;BMP_temperature;BMP_pressure;BME280_temperature;BME280_humidity;BME280_pressure;Samples;Min_cycle;Max_cycle;Signal;HPM_P1;HPM_P2
2021/03/23 00:01:28;;;;;;;22.17;10.77;;;4.00;91.70;;;;;;5030054;28;20638;-72
2021/03/23 00:03:54;;;;;;;21.87;11.00;;;4.00;91.80;;;;;;5032956;28;20245;-72
2021/03/23 00:06:22;;;;;;;28.23;11.53;;;4.00;91.90;;;;;;5031992;28;20261;-72
2021/03/23 00:08:50;;;;;;;23.10;11.70;;;4.00;92.00;;;;;;5032677;28;20222;-72
2021/03/23 00:11:20;;;;;;;25.07;11.30;;;4.00;92.00;;;;;;5030557;28;20257;-72
2021/03/23 00:13:50;;;;;;;25.57;11.33;;;3.90;92.10;;;;;;5030590;28;20227;-71
2021/03/23 00:16:20;;;;;;;25.43;11.70;;;4.00;92.20;;;;;;5032834;28;20252;-71
2021/03/23 00:18:46;;;;;;;18.80;9.93;;;4.00;92.20;;;;;;5033881;28;20215;-72
2021/03/23 00:21:14;;;;;;;18.63;9.77;;;3.90;92.30;;;;;;5033720;28;20203;-72
2021/03/23 00:23:41;;;;;;;19.63;10.03;;;4.00;92.40;;;;;;5032553;28;20210;-74
2021/03/23 00:26:09;;;;;;;20.87;10.70;;;3.90;92.40;;;;;;5032837;28;20198;-73
2021/03/23 00:28:35;;;;;;;18.77;10.43;;;4.00;92.40;;;;;;5032765;28;20575;-73
2021/03/23 00:31:03;;;;;;;18.90;10.20;;;4.00;92.40;;;;;;5032727;28;20290;-72
2021/03/23 00:33:33;;;;;;;20.30;10.10;;;4.00;92.50;;;;;;5031961;28;20213;-71
2021/03/23 00:36:01;;;;;;;20.33;10.43;;;4.00;92.40;;;;;;5032375;28;20245;-72
2021/03/23 00:38:30;;;;;;;19.40;9.97;;;3.90;92.30;;;;;;5033160;28;20252;-72
2021/03/23 00:40:57;;;;;;;21.53;10.43;;;3.90;92.20;;;;;;5032897;28;20357;-73
2021/03/23 00:43:23;;;;;;;22.27;10.03;;;3.90;92.20;;;;;;5030572;28;20217;-72
2021/03/23 00:45:50;;;;;;;18.77;10.07;;;3.90;92.30;;;;;;5031896;28;20213;-72
2021/03/23 00:48:18;;;;;;;18.43;9.80;;;3.90;92.10;;;;;;5029544;28;20209;-72
2021/03/23 00:50:45;;;;;;;16.53;9.17;;;3.90;92.00;;;;;;5031841;28;20636;-72
2021/03/23 00:53:12;;;;;;;19.43;9.63;;;3.90;92.00;;;;;;5029960;28;20214;-71
2021/03/23 00:55:39;;;;;;;16.97;9.10;;;3.90;92.30;;;;;;5027838;28;20211;-72
2021/03/23 00:58:05;;;;;;;20.27;9.87;;;3.90;91.80;;;;;;5031771;28;20340;-71
2021/03/23 01:00:32;;;;;;;21.87;10.60;;;3.90;91.80;;;;;;5027171;28;20199;-72
2021/03/23 01:02:58;;;;;;;17.40;9.53;;;3.90;91.60;;;;;;5031928;28;20218;-71
2021/03/23 01:05:27;;;;;;;21.83;8.97;;;4.00;91.50;;;;;;5031124;28;20240;-72
2021/03/23 01:07:54;;;;;;;19.50;9.00;;;4.00;91.30;;;;;;5029222;28;20574;-71
2021/03/23 01:10:23;;;;;;;14.40;8.60;;;4.00;91.10;;;;;;5031832;28;20227;-73
2021/03/23 01:12:49;;;;;;;15.40;8.40;;;3.90;91.20;;;;;;5029594;28;20293;-73
2021/03/23 01:15:20;;;;;;;17.87;8.90;;;3.90;90.90;;;;;;5032640;28;20227;-72
2021/03/23 01:17:47;;;;;;;14.83;8.23;;;3.90;91.00;;;;;;5032785;28;20233;-73
2021/03/23 01:20:16;;;;;;;22.23;9.60;;;3.90;90.90;;;;;;5032409;28;20664;-72
2021/03/23 01:22:43;;;;;;;16.13;8.37;;;3.90;91.00;;;;;;5030020;28;20215;-72
2021/03/23 01:25:12;;;;;;;22.57;9.40;;;3.90;91.00;;;;;;5031087;28;20217;-71
2021/03/23 01:27:39;;;;;;;17.50;8.73;;;4.00;91.10;;;;;;5030798;28;20219;-72
2021/03/23 01:30:07;;;;;;;16.40;8.93;;;4.00;91.30;;;;;;5033172;28;20273;-71
2021/03/23 01:32:34;;;;;;;15.57;8.27;;;4.00;91.50;;;;;;5031537;28;20215;-71
2021/03/23 01:35:00;;;;;;;16.20;8.83;;;4.00;91.70;;;;;;5032398;28;20302;-71
2021/03/23 01:37:26;;;;;;;19.67;9.27;;;3.90;91.80;;;;;;5036001;28;20221;-71
2021/03/23 01:39:53;;;;;;;15.97;8.70;;;4.00;92.00;;;;;;5032692;28;20213;-71
2021/03/23 01:42:21;;;;;;;18.20;9.10;;;4.00;92.00;;;;;;5036467;28;20270;-72
2021/03/23 01:45:17;;;;;;;14.27;8.30;;;4.00;92.00;;;;;;5034032;28;20233;-72
2021/03/23 01:47:44;;;;;;;17.40;8.50;;;4.00;92.10;;;;;;5035194;28;20771;-71
2021/03/23 01:50:11;;;;;;;18.73;8.67;;;4.00;92.20;;;;;;5036147;28;20241;-71
2021/03/23 01:52:38;;;;;;;17.20;8.20;;;4.00;92.20;;;;;;5035698;28;20206;-72
2021/03/23 01:55:08;;;;;;;16.53;8.07;;;4.00;92.30;;;;;;5035179;28;20302;-71
2021/03/23 01:57:38;;;;;;;19.43;8.83;;;4.00;92.40;;;;;;5035050;28;20210;-71
2021/03/23 02:00:07;;;;;;;18.00;8.40;;;4.00;92.60;;;;;;5035497;28;20317;-73
2021/03/23 02:02:34;;;;;;;16.83;9.03;;;3.90;92.90;;;;;;5028517;28;20269;-71
2021/03/23 02:05:00;;;;;;;15.70;8.57;;;3.90;92.70;;;;;;5034313;28;20644;-71
2021/03/23 02:07:26;;;;;;;16.07;8.23;;;3.90;92.70;;;;;;5035142;28;20201;-70
2021/03/23 02:09:55;;;;;;;17.87;8.40;;;3.90;92.80;;;;;;5035061;28;20332;-71
2021/03/23 02:12:25;;;;;;;14.17;7.87;;;3.90;92.70;;;;;;5034248;28;20276;-71
2021/03/23 02:14:53;;;;;;;15.27;7.80;;;3.90;92.70;;;;;;5033832;28;20229;-72
2021/03/23 02:17:27;;;;;;;14.80;8.23;;;3.90;92.70;;;;;;5026806;28;20271;-71
2021/03/23 02:19:56;;;;;;;12.97;7.07;;;3.90;92.70;;;;;;5035166;28;20198;-71
2021/03/23 02:22:26;;;;;;;16.40;7.53;;;3.90;92.50;;;;;;5033810;28;20289;-71
2021/03/23 02:24:52;;;;;;;16.20;7.70;;;3.90;92.40;;;;;;5032847;28;20570;-71
2021/03/23 02:27:21;;;;;;;15.47;7.77;;;3.90;92.50;;;;;;5034722;28;20782;-71
2021/03/23 02:29:48;;;;;;;14.80;7.57;;;3.90;92.60;;;;;;5035209;28;20675;-71
2021/03/23 02:32:14;;;;;;;14.73;8.10;;;3.90;92.70;;;;;;5028434;28;20234;-70
2021/03/23 02:34:41;;;;;;;16.07;7.40;;;3.90;92.70;;;;;;5034154;28;20234;-70
2021/03/23 02:37:08;;;;;;;13.87;7.67;;;3.90;92.70;;;;;;5033565;28;20648;-71
2021/03/23 02:39:35;;;;;;;17.13;8.43;;;3.80;92.70;;;;;;5033300;28;20357;-71
2021/03/23 02:42:03;;;;;;;14.70;7.73;;;3.80;92.70;;;;;;5029439;28;20206;-70
2021/03/23 02:44:37;;;;;;;13.80;7.13;;;3.80;92.70;;;;;;5032185;28;20206;-70
2021/03/23 02:47:03;;;;;;;15.57;7.93;;;3.80;92.80;;;;;;5028556;28;20199;-70
2021/03/23 02:49:30;;;;;;;15.07;7.47;;;3.80;92.70;;;;;;5034231;28;20250;-70
2021/03/23 02:51:57;;;;;;;18.67;8.70;;;3.90;92.40;;;;;;5030600;28;20241;-70
2021/03/23 02:54:23;;;;;;;12.73;7.00;;;3.80;92.30;;;;;;5031188;28;20575;-71
2021/03/23 02:56:50;;;;;;;13.43;6.53;;;3.80;92.20;;;;;;5034928;28;20214;-70
2021/03/23 02:59:17;;;;;;;14.23;7.20;;;3.80;92.10;;;;;;5030612;28;20207;-73
2021/03/23 03:01:46;;;;;;;12.87;6.77;;;3.90;92.00;;;;;;5034042;28;20213;-72
2021/03/23 03:04:12;;;;;;;12.00;6.77;;;3.90;91.70;;;;;;5033301;28;20290;-70
2021/03/23 03:06:39;;;;;;;14.17;7.00;;;3.80;91.60;;;;;;5031209;28;20262;-71
2021/03/23 03:09:06;;;;;;;11.53;6.20;;;3.80;91.50;;;;;;5031664;28;20579;-72
2021/03/23 03:11:32;;;;;;;13.50;6.43;;;3.80;91.70;;;;;;5034064;28;20648;-72
2021/03/23 03:14:00;;;;;;;14.17;6.43;;;3.80;91.70;;;;;;5030978;28;20257;-72
2021/03/23 03:16:26;;;;;;;14.23;6.93;;;3.80;91.70;;;;;;5030303;28;20236;-72
2021/03/23 03:18:53;;;;;;;11.60;6.10;;;3.80;91.80;;;;;;5033538;28;20709;-72
2021/03/23 03:21:19;;;;;;;13.40;6.20;;;3.80;91.90;;;;;;5029668;28;20753;-72
2021/03/23 03:23:46;;;;;;;12.17;6.77;;;3.80;91.90;;;;;;5033719;28;20302;-72
2021/03/23 03:26:12;;;;;;;13.03;6.30;;;3.70;91.90;;;;;;5033006;28;20297;-72
2021/03/23 03:28:39;;;;;;;13.50;6.77;;;3.80;92.00;;;;;;5029404;28;20544;-72
2021/03/23 03:31:06;;;;;;;12.27;5.60;;;3.80;92.10;;;;;;5032391;28;20698;-71
2021/03/23 03:33:33;;;;;;;12.97;6.60;;;3.80;92.00;;;;;;5028162;28;20309;-71
2021/03/23 03:35:59;;;;;;;11.97;5.60;;;3.80;92.00;;;;;;5032417;28;20244;-71
2021/03/23 03:38:27;;;;;;;10.90;5.70;;;3.80;91.90;;;;;;5032195;28;20269;-72
2021/03/23 03:40:56;;;;;;;12.27;5.50;;;3.80;91.90;;;;;;5028875;28;20215;-71
2021/03/23 03:43:25;;;;;;;12.70;5.50;;;3.80;91.90;;;;;;5033016;28;20289;-71
2021/03/23 03:45:51;;;;;;;11.57;6.17;;;3.80;91.90;;;;;;5032531;28;20202;-71
2021/03/23 03:48:19;;;;;;;12.93;5.50;;;3.80;91.90;;;;;;5030910;28;20678;-71
2021/03/23 03:50:45;;;;;;;12.83;5.37;;;3.80;91.90;;;;;;5030277;28;20226;-72
2021/03/23 03:53:12;;;;;;;14.83;5.53;;;3.80;91.90;;;;;;5032817;28;20199;-71
2021/03/23 03:55:40;;;;;;;11.67;5.30;;;3.90;91.90;;;;;;5031504;28;20213;-70
2021/03/23 03:58:07;;;;;;;10.90;5.43;;;3.90;92.10;;;;;;5031262;28;20562;-71
2021/03/23 04:00:35;;;;;;;9.57;5.33;;;3.90;91.80;;;;;;5032481;28;20293;-71
2021/03/23 04:03:04;;;;;;;8.57;4.13;;;3.90;91.70;;;;;;5027882;28;20283;-72
2021/03/23 04:05:33;;;;;;;13.93;5.40;;;3.90;91.70;;;;;;5032861;28;20282;-70
2021/03/23 04:08:00;;;;;;;7.70;4.30;;;3.90;91.60;;;;;;5033399;28;20206;-71
2021/03/23 04:10:26;;;;;;;7.63;4.70;;;3.90;91.70;;;;;;5033142;28;20222;-71
2021/03/23 04:12:53;;;;;;;7.50;5.00;;;3.90;91.70;;;;;;5032097;28;20293;-72
2021/03/23 04:15:21;;;;;;;9.80;4.80;;;3.90;91.50;;;;;;5030857;28;20257;-72
2021/03/23 04:17:48;;;;;;;11.77;5.03;;;3.90;91.50;;;;;;5032823;28;20365;-72
2021/03/23 04:20:16;;;;;;;12.10;5.20;;;3.90;91.40;;;;;;5031355;28;20294;-71
2021/03/23 04:22:44;;;;;;;11.27;4.87;;;3.90;91.50;;;;;;5030824;28;20660;-73
2021/03/23 04:25:13;;;;;;;10.13;4.43;;;3.90;91.40;;;;;;5030602;28;20194;-72
2021/03/23 04:27:39;;;;;;;10.03;4.20;;;3.90;91.40;;;;;;5031694;28;20252;-73
2021/03/23 04:30:08;;;;;;;9.93;4.73;;;3.80;91.30;;;;;;5028257;28;20218;-72
2021/03/23 04:32:35;;;;;;;7.93;3.90;;;3.80;91.40;;;;;;5032466;28;20207;-72
2021/03/23 04:35:02;;;;;;;9.13;4.60;;;3.80;91.50;;;;;;5031038;28;20566;-72
2021/03/23 04:37:28;;;;;;;9.03;4.90;;;3.80;91.50;;;;;;5033034;28;20210;-71
2021/03/23 04:39:55;;;;;;;8.27;4.47;;;3.80;91.60;;;;;;5034195;28;20625;-73
2021/03/23 04:42:22;;;;;;;9.93;4.40;;;3.80;91.70;;;;;;5032814;28;20233;-73
2021/03/23 04:44:48;;;;;;;9.43;4.30;;;3.70;91.80;;;;;;5028624;28;20202;-73
2021/03/23 04:47:15;;;;;;;9.07;4.53;;;3.80;91.90;;;;;;5026942;28;20714;-71
2021/03/23 04:49:41;;;;;;;7.70;4.20;;;3.80;92.10;;;;;;5031197;28;20315;-72
2021/03/23 04:52:09;;;;;;;9.23;4.47;;;3.80;92.20;;;;;;5030318;28;20214;-72
2021/03/23 04:54:35;;;;;;;9.93;5.50;;;3.80;92.20;;;;;;5032616;28;20234;-72
2021/03/23 04:57:03;;;;;;;9.33;4.50;;;3.80;92.40;;;;;;5031976;28;20620;-71
2021/03/23 04:59:30;;;;;;;10.47;4.80;;;3.70;92.50;;;;;;5031184;28;20237;-72
2021/03/23 05:01:56;;;;;;;10.50;5.37;;;3.80;92.70;;;;;;5031816;28;20233;-71
2021/03/23 05:04:22;;;;;;;10.53;5.00;;;3.80;92.80;;;;;;5030469;28;20655;-72
2021/03/23 05:06:49;;;;;;;10.50;5.07;;;3.80;93.00;;;;;;5028556;28;20250;-72
2021/03/23 05:09:15;;;;;;;9.20;4.70;;;3.80;93.10;;;;;;5031312;28;20238;-72
2021/03/23 05:11:41;;;;;;;12.33;5.37;;;3.80;93.20;;;;;;5032924;28;20211;-71
2021/03/23 05:14:09;;;;;;;8.37;4.93;;;3.80;93.20;;;;;;5032375;28;20658;-71
2021/03/23 05:16:36;;;;;;;8.47;4.63;;;3.80;93.40;;;;;;5035965;28;20234;-71
2021/03/23 05:19:03;;;;;;;9.50;5.43;;;3.80;93.50;;;;;;5036457;28;20209;-71
2021/03/23 05:21:30;;;;;;;9.13;4.80;;;3.80;93.60;;;;;;5032630;28;20217;-70
2021/03/23 05:23:58;;;;;;;8.47;4.87;;;3.90;93.80;;;;;;5033736;28;20672;-72
2021/03/23 05:26:27;;;;;;;14.03;5.73;;;3.90;93.90;;;;;;5035566;28;20640;-71
2021/03/23 05:28:54;;;;;;;10.70;5.40;;;3.90;94.10;;;;;;5035977;28;20584;-72
2021/03/23 05:31:22;;;;;;;10.30;5.30;;;3.90;94.10;;;;;;5035227;28;20245;-71
2021/03/23 05:33:50;;;;;;;8.20;4.77;;;3.90;94.10;;;;;;5035391;28;20260;-70
2021/03/23 05:36:17;;;;;;;7.90;4.97;;;3.90;94.10;;;;;;5034819;28;20218;-72
2021/03/23 05:38:44;;;;;;;10.33;5.30;;;3.90;94.10;;;;;;5035254;28;20210;-70
2021/03/23 05:41:19;;;;;;;12.50;4.73;;;4.00;94.20;;;;;;5034543;28;20234;-70
2021/03/23 05:43:59;;;;;;;8.73;4.23;;;4.00;94.20;;;;;;5035026;28;20283;-72
2021/03/23 05:46:33;;;;;;;10.50;5.17;;;4.00;94.20;;;;;;5034963;28;20290;-72
2021/03/23 05:49:28;;;;;;;10.20;4.53;;;4.10;94.20;;;;;;5034434;28;20432;-71
2021/03/23 05:52:02;;;;;;;8.33;4.67;;;4.10;94.50;;;;;;5035403;28;20966;-71
2021/03/23 05:54:35;;;;;;;8.80;4.03;;;4.10;94.20;;;;;;5032697;28;20670;-72
2021/03/23 05:57:06;;;;;;;8.23;4.47;;;4.20;94.30;;;;;;5035099;28;20199;-71
2021/03/23 05:59:44;;;;;;;10.57;4.50;;;4.20;94.30;;;;;;5032113;28;20199;-71
2021/03/23 06:02:22;;;;;;;7.53;4.00;;;4.20;94.60;;;;;;5033421;28;20659;-72
2021/03/23 06:04:56;;;;;;;10.80;4.00;;;4.30;94.30;;;;;;5029823;28;20218;-72
2021/03/23 06:07:23;;;;;;;13.47;4.27;;;4.30;94.30;;;;;;5035312;28;20202;-72
2021/03/23 06:09:50;;;;;;;7.50;3.83;;;4.30;94.30;;;;;;5030477;28;20703;-71
2021/03/23 06:12:31;;;;;;;10.57;4.37;;;4.30;94.30;;;;;;5035130;28;20210;-72
2021/03/23 06:15:02;;;;;;;8.50;4.10;;;4.30;94.30;;;;;;5033727;28;20234;-71
2021/03/23 06:17:38;;;;;;;10.27;5.03;;;4.30;94.40;;;;;;5035462;28;20234;-72
2021/03/23 06:20:34;;;;;;;7.87;4.50;;;4.30;94.50;;;;;;5034442;28;20249;-71
2021/03/23 06:23:24;;;;;;;8.33;3.93;;;4.30;94.80;;;;;;5033598;28;20238;-72
2021/03/23 06:25:59;;;;;;;8.10;4.60;;;4.30;95.00;;;;;;5033658;28;20214;-72
2021/03/23 06:28:37;;;;;;;12.07;3.73;;;4.30;95.20;;;;;;5034693;28;20217;-72
2021/03/23 06:31:14;;;;;;;7.30;4.10;;;4.40;95.40;;;;;;5031867;28;20245;-71
2021/03/23 06:33:42;;;;;;;9.10;4.93;;;4.40;95.60;;;;;;5032403;28;20244;-71
2021/03/23 06:36:20;;;;;;;8.33;4.07;;;4.50;95.90;;;;;;5033512;28;20229;-72
2021/03/23 06:38:46;;;;;;;9.10;4.43;;;4.50;96.10;;;;;;5032223;28;20241;-72
2021/03/23 06:41:19;;;;;;;7.53;3.97;;;4.50;96.20;;;;;;5031772;28;20279;-75
2021/03/23 06:43:48;;;;;;;7.03;4.13;;;4.50;96.40;;;;;;5037089;28;20226;-75
2021/03/23 06:46:38;;;;;;;8.77;3.73;;;4.60;96.60;;;;;;5033376;28;20210;-78
2021/03/23 06:49:24;;;;;;;9.47;4.97;;;4.70;96.80;;;;;;5031889;28;20230;-77
2021/03/23 06:52:19;;;;;;;11.03;4.80;;;4.80;96.70;;;;;;5031649;28;20536;-77
2021/03/23 06:55:05;;;;;;;7.63;3.93;;;4.90;96.90;;;;;;5036699;28;20297;-77
2021/03/23 06:57:36;;;;;;;6.60;3.80;;;5.00;96.70;;;;;;5037603;28;20660;-76
2021/03/23 07:00:15;;;;;;;18.07;13.60;;;5.10;96.50;;;;;;5033877;28;20206;-74
2021/03/23 07:02:45;;;;;;;10.90;5.57;;;5.20;96.50;;;;;;5027741;28;20655;-76
2021/03/23 07:05:31;;;;;;;7.07;4.50;;;5.40;96.60;;;;;;5030382;28;20620;-75
2021/03/23 07:08:00;;;;;;;8.57;4.87;;;5.50;96.50;;;;;;5030553;28;20219;-73
2021/03/23 07:10:28;;;;;;;9.17;4.30;;;5.70;96.20;;;;;;5030420;28;20684;-72
2021/03/23 07:12:55;;;;;;;7.87;4.70;;;5.90;96.10;;;;;;5031162;28;20249;-70
2021/03/23 07:15:23;;;;;;;10.17;4.80;;;6.00;95.50;;;;;;5030118;28;20238;-72
2021/03/23 07:17:52;;;;;;;9.77;4.40;;;6.20;95.20;;;;;;5033115;28;20242;-71
2021/03/23 07:20:42;;;;;;;10.30;4.87;;;6.40;94.80;;;;;;5028038;28;20640;-72
2021/03/23 07:23:39;;;;;;;7.30;4.70;;;6.50;94.40;;;;;;5032084;28;20221;-73
2021/03/23 07:26:26;;;;;;;8.47;4.67;;;6.80;93.90;;;;;;4986059;28;20220;-72
2021/03/23 07:28:54;;;;;;;9.17;4.60;;;7.00;93.40;;;;;;5028304;28;20228;-72
2021/03/23 07:31:27;;;;;;;8.17;4.43;;;7.10;93.10;;;;;;5028963;28;20664;-73
2021/03/23 07:34:14;;;;;;;9.30;5.20;;;7.40;92.60;;;;;;5031429;28;20211;-72
2021/03/23 07:36:47;;;;;;;6.67;4.30;;;7.50;91.40;;;;;;5032318;28;20714;-71
2021/03/23 07:39:19;;;;;;;8.93;4.87;;;7.50;90.80;;;;;;5029267;28;20210;-74
2021/03/23 07:41:50;;;;;;;8.43;4.47;;;7.70;91.10;;;;;;5032815;28;20269;-71
2021/03/23 07:44:34;;;;;;;14.77;7.93;;;7.80;90.30;;;;;;5033119;28;20201;-72
2021/03/23 07:47:09;;;;;;;9.57;4.50;;;8.00;90.10;;;;;;5032044;28;20213;-71
2021/03/23 07:49:40;;;;;;;6.90;4.37;;;8.10;88.90;;;;;;5029219;28;20562;-72
2021/03/23 07:52:21;;;;;;;10.53;5.37;;;8.20;87.40;;;;;;5033603;28;20214;-72
2021/03/23 07:54:48;;;;;;;10.77;4.73;;;8.40;87.40;;;;;;5034249;28;20256;-73
2021/03/23 07:57:36;;;;;;;10.60;4.50;;;8.50;86.00;;;;;;5028497;28;20210;-75
2021/03/23 08:00:20;;;;;;;8.70;4.30;;;8.60;84.80;;;;;;5032893;28;20191;-72
2021/03/23 08:03:00;;;;;;;7.50;4.33;;;8.70;84.30;;;;;;5033895;28;20664;-74
2021/03/23 08:05:35;;;;;;;9.23;4.10;;;8.70;83.30;;;;;;5029351;28;20238;-71
2021/03/23 08:08:17;;;;;;;7.33;4.37;;;8.80;83.20;;;;;;5034435;28;20241;-73
2021/03/23 08:10:53;;;;;;;9.80;4.63;;;9.10;83.60;;;;;;5032144;28;20221;-73
2021/03/23 08:13:56;;;;;;;7.53;5.00;;;9.40;82.00;;;;;;5032110;28;20203;-73
2021/03/23 08:16:46;;;;;;;8.67;4.17;;;9.60;80.20;;;;;;5030138;28;20221;-72
2021/03/23 08:19:36;;;;;;;10.37;5.03;;;9.80;78.30;;;;;;5029966;28;20277;-75
2021/03/23 08:22:44;;;;;;;7.67;4.73;;;9.90;77.40;;;;;;5029230;28;20278;-74
2021/03/23 08:25:20;;;;;;;7.60;4.50;;;10.20;74.30;;;;;;5033262;28;20225;-72
2021/03/23 08:28:05;;;;;;;9.67;4.90;;;10.40;71.90;;;;;;5032744;28;20202;-73
2021/03/23 08:30:44;;;;;;;10.20;4.90;;;10.40;70.90;;;;;;5032848;28;20293;-73
2021/03/23 08:33:31;;;;;;;10.73;5.07;;;10.40;69.50;;;;;;5028407;28;20218;-73
2021/03/23 08:36:10;;;;;;;7.90;5.07;;;10.40;69.90;;;;;;5031836;28;20582;-73
2021/03/23 08:38:51;;;;;;;8.10;4.73;;;10.60;70.20;;;;;;5031151;28;20694;-71
2021/03/23 08:41:27;;;;;;;12.73;5.00;;;10.80;69.00;;;;;;5032430;28;20202;-71
2021/03/23 08:43:54;;;;;;;10.87;5.23;;;10.90;67.50;;;;;;5034826;28;20218;-73
2021/03/23 08:46:25;;;;;;;8.97;4.53;;;11.00;67.40;;;;;;5034110;28;20289;-73
2021/03/23 08:48:54;;;;;;;10.57;5.57;;;11.10;66.30;;;;;;5033376;28;20214;-73
2021/03/23 08:51:24;;;;;;;8.67;4.40;;;11.30;65.70;;;;;;5036946;28;20222;-73
2021/03/23 08:53:59;;;;;;;9.07;4.43;;;11.50;64.80;;;;;;5034422;28;20215;-74
2021/03/23 08:57:01;;;;;;;9.40;4.67;;;11.50;63.30;;;;;;5039439;28;20206;-73
2021/03/23 08:59:49;;;;;;;8.27;4.80;;;11.60;64.40;;;;;;5034567;28;20274;-75
2021/03/23 09:02:46;;;;;;;11.37;4.90;;;12.20;63.60;;;;;;5031403;28;20209;-73
2021/03/23 09:05:38;;;;;;;8.80;5.23;;;12.50;60.50;;;;;;5033864;28;20606;-72
2021/03/23 09:08:42;;;;;;;8.63;4.23;;;12.60;60.60;;;;;;5030188;28;20243;-70
2021/03/23 09:11:12;;;;;;;7.33;4.10;;;13.00;60.00;;;;;;5033791;28;20237;-72
2021/03/23 09:14:16;;;;;;;8.43;4.77;;;13.20;59.00;;;;;;5034486;28;20227;-72
2021/03/23 09:16:52;;;;;;;9.70;4.53;;;13.30;59.50;;;;;;5029024;28;20266;-72
2021/03/23 09:19:39;;;;;;;7.80;4.37;;;13.60;58.90;;;;;;5033209;28;20532;-73
2021/03/23 09:22:28;;;;;;;7.60;4.20;;;17.10;59.40;;;;;;5032683;28;20204;-73
2021/03/23 09:25:42;;;;;;;8.07;4.43;;;21.50;46.10;;;;;;5032064;28;20225;-73
2021/03/23 09:28:10;;;;;;;6.80;4.25;;;26.50;37.10;;;;;;5029208;28;20796;-72
2021/03/23 09:30:53;;;;;;;4.97;3.72;;;30.50;30.00;;;;;;5032738;28;20222;-73
2021/03/23 09:33:58;;;;;;;9.15;4.90;;;33.20;27.30;;;;;;5031212;28;20234;-71
2021/03/23 09:36:50;;;;;;;9.57;5.57;;;34.80;25.40;;;;;;5026117;28;20217;-71
2021/03/23 09:39:47;;;;;;;8.23;4.40;;;34.90;24.90;;;;;;5031253;28;20325;-71
2021/03/23 09:42:33;;;;;;;7.68;4.10;;;33.10;24.50;;;;;;5031871;28;20302;-71
2021/03/23 09:45:24;;;;;;;8.30;5.00;;;30.80;25.50;;;;;;5032715;28;20638;-72
2021/03/23 09:48:00;;;;;;;7.22;5.05;;;28.70;26.80;;;;;;5030423;28;20218;-72
2021/03/23 09:50:36;;;;;;;8.80;5.22;;;27.30;28.70;;;;;;5032042;28;20568;-72
2021/03/23 09:53:12;;;;;;;8.55;5.93;;;26.60;28.90;;;;;;5029948;28;20272;-71
2021/03/23 09:55:40;;;;;;;9.27;5.40;;;25.50;29.50;;;;;;5029808;28;20806;-72
2021/03/23 09:58:20;;;;;;;10.43;6.13;;;24.30;30.10;;;;;;5032920;28;20686;-72
2021/03/23 10:00:46;;;;;;;12.25;5.93;;;23.10;31.40;;;;;;5034807;28;20290;-72
2021/03/23 10:03:28;;;;;;;9.65;5.88;;;21.90;32.90;;;;;;5028857;28;20670;-72
2021/03/23 10:06:00;;;;;;;7.47;4.95;;;21.30;34.40;;;;;;5031201;28;20238;-73
2021/03/23 10:08:31;;;;;;;10.38;6.55;;;21.30;34.60;;;;;;5032834;28;20231;-71
2021/03/23 10:11:07;;;;;;;11.95;6.18;;;21.20;34.60;;;;;;5036944;28;20671;-72
2021/03/23 10:13:34;;;;;;;10.80;5.63;;;20.90;34.90;;;;;;5034490;28;20236;-73
2021/03/23 10:16:04;;;;;;;9.00;6.47;;;20.30;35.90;;;;;;5034624;28;20218;-73
2021/03/23 10:18:37;;;;;;;12.70;6.53;;;19.90;36.70;;;;;;5035973;28;20213;-73
2021/03/23 10:21:07;;;;;;;11.27;7.20;;;20.00;36.90;;;;;;5035382;28;20202;-72
2021/03/23 10:23:35;;;;;;;8.70;5.57;;;20.70;38.40;;;;;;5037179;28;20210;-72
2021/03/23 10:26:05;;;;;;;10.40;6.40;;;22.70;36.60;;;;;;5035972;28;20213;-72
2021/03/23 10:28:33;;;;;;;7.43;5.28;;;25.00;33.90;;;;;;5035116;28;20213;-73
2021/03/23 10:31:02;;;;;;;9.10;6.10;;;26.70;31.30;;;;;;5035663;28;20226;-72
2021/03/23 10:33:32;;;;;;;10.52;5.97;;;27.70;29.80;;;;;;5035355;28;20210;-73
2021/03/23 10:36:01;;;;;;;12.45;6.45;;;27.70;29.30;;;;;;5035336;28;20202;-72
2021/03/23 10:38:38;;;;;;;11.38;6.35;;;27.70;29.40;;;;;;5035642;28;20297;-73
2021/03/23 10:41:27;;;;;;;10.63;6.18;;;27.40;29.30;;;;;;5034141;28;20580;-72
2021/03/23 10:44:13;;;;;;;9.20;5.93;;;26.50;29.50;;;;;;5027292;28;20264;-73
2021/03/23 10:46:41;;;;;;;9.73;5.55;;;25.30;30.50;;;;;;5024878;28;20210;-73
2021/03/23 10:49:31;;;;;;;14.23;6.10;;;24.30;31.30;;;;;;5036019;28;20298;-71
2021/03/23 10:52:00;;;;;;;11.23;5.63;;;23.00;32.10;;;;;;5032240;28;20214;-72
2021/03/23 10:54:29;;;;;;;11.90;5.80;;;21.70;33.50;;;;;;5033219;28;20210;-73
2021/03/23 10:56:58;;;;;;;9.80;5.63;;;20.70;34.70;;;;;;5034707;28;20268;-73
2021/03/23 10:59:32;;;;;;;9.70;4.95;;;19.80;35.80;;;;;;5033379;28;20218;-73
2021/03/23 11:02:02;;;;;;;7.85;5.28;;;18.90;37.10;;;;;;5033776;28;20579;-72
2021/03/23 11:04:31;;;;;;;7.70;4.57;;;18.30;38.00;;;;;;5033614;28;20260;-72
2021/03/23 11:07:16;;;;;;;8.35;5.55;;;17.80;38.80;;;;;;5028307;28;20346;-72
2021/03/23 11:09:43;;;;;;;11.00;5.82;;;17.30;39.60;;;;;;5035011;28;20209;-73
2021/03/23 11:12:11;;;;;;;10.98;5.55;;;17.00;40.30;;;;;;5035401;28;20230;-72
2021/03/23 11:14:38;;;;;;;9.57;6.00;;;16.70;41.10;;;;;;5035142;28;20606;-74
2021/03/23 11:17:05;;;;;;;7.63;5.37;;;16.50;41.20;;;;;;5035293;28;20207;-73
2021/03/23 11:19:38;;;;;;;7.77;5.20;;;16.20;41.80;;;;;;5035126;28;20663;-73
2021/03/23 11:22:09;;;;;;;7.97;5.13;;;16.20;42.70;;;;;;5035609;28;20241;-73
2021/03/23 11:24:35;;;;;;;8.87;5.20;;;16.20;42.60;;;;;;5034687;28;20206;-72
2021/03/23 11:27:02;;;;;;;8.83;5.27;;;16.20;42.40;;;;;;5034794;28;20670;-73
2021/03/23 11:29:29;;;;;;;10.33;5.67;;;16.00;42.70;;;;;;5033161;28;20202;-72
2021/03/23 11:31:56;;;;;;;10.40;5.97;;;15.70;43.20;;;;;;5032669;28;20222;-72
2021/03/23 11:34:23;;;;;;;10.43;5.97;;;15.50;43.70;;;;;;5032534;28;20230;-72
2021/03/23 11:36:51;;;;;;;7.53;5.17;;;15.20;44.20;;;;;;5032421;28;21612;-71
2021/03/23 11:39:19;;;;;;;8.53;5.30;;;15.10;44.70;;;;;;5032378;28;20660;-72
2021/03/23 11:41:54;;;;;;;8.67;5.70;;;15.00;45.00;;;;;;5034367;28;20540;-68
2021/03/23 11:44:24;;;;;;;8.93;5.77;;;14.70;45.30;;;;;;5033157;28;20209;-70
2021/03/23 11:46:57;;;;;;;9.93;5.97;;;14.50;46.00;;;;;;5032854;28;20597;-68
2021/03/23 11:49:30;;;;;;;8.40;5.47;;;14.40;46.80;;;;;;5029043;28;20627;-71
2021/03/23 11:51:57;;;;;;;9.60;5.80;;;14.40;47.20;;;;;;5030019;28;20233;-74
2021/03/23 11:54:26;;;;;;;11.03;6.00;;;14.40;47.20;;;;;;5034916;28;20214;-77
2021/03/23 11:56:53;;;;;;;11.07;6.20;;;14.30;47.40;;;;;;5033265;28;20218;-74
2021/03/23 11:59:21;;;;;;;10.17;5.10;;;14.30;47.90;;;;;;5034529;28;20209;-74
2021/03/23 12:01:48;;;;;;;7.30;5.27;;;14.30;47.90;;;;;;5033229;28;20207;-69
2021/03/23 12:04:15;;;;;;;11.80;5.57;;;14.40;48.00;;;;;;5033632;28;20238;-68
2021/03/23 12:06:56;;;;;;;11.53;5.97;;;14.30;47.90;;;;;;5033333;28;20238;-69
2021/03/23 12:09:35;;;;;;;8.83;5.27;;;14.20;48.00;;;;;;5032309;28;20670;-70
2021/03/23 12:12:07;;;;;;;9.23;4.70;;;14.10;48.10;;;;;;5033388;28;20237;-71
2021/03/23 12:14:43;;;;;;;11.37;4.77;;;13.90;48.20;;;;;;5022449;28;20226;-69
2021/03/23 12:17:11;;;;;;;7.13;4.97;;;13.80;48.20;;;;;;5034996;28;20210;-69
2021/03/23 12:19:41;;;;;;;8.50;5.07;;;13.60;48.40;;;;;;5033454;28;20640;-69
2021/03/23 12:22:10;;;;;;;8.97;4.57;;;13.40;48.70;;;;;;5033231;28;20195;-68
2021/03/23 12:24:38;;;;;;;8.53;4.53;;;13.20;49.20;;;;;;5031855;28;20211;-69
2021/03/23 12:27:06;;;;;;;22.33;13.80;;;13.10;49.20;;;;;;5032876;28;20256;-74
2021/03/23 12:29:33;;;;;;;19.30;7.57;;;12.90;49.40;;;;;;5025011;28;20405;-71
2021/03/23 12:32:00;;;;;;;8.00;4.77;;;12.80;49.70;;;;;;5034117;28;20701;-72
2021/03/23 12:34:28;;;;;;;9.17;4.27;;;12.80;50.00;;;;;;5032581;28;20248;-70
2021/03/23 12:36:55;;;;;;;9.23;5.33;;;12.70;50.20;;;;;;5033373;28;20298;-72
2021/03/23 12:39:23;;;;;;;10.00;4.97;;;12.60;50.80;;;;;;5034319;28;20273;-70
2021/03/23 12:41:50;;;;;;;8.17;5.33;;;12.60;51.00;;;;;;5033545;28;20203;-69
2021/03/23 12:44:17;;;;;;;9.23;4.20;;;12.60;51.10;;;;;;5033577;28;20202;-72
2021/03/23 12:46:44;;;;;;;5.47;3.63;;;12.50;51.00;;;;;;5027287;28;20261;-71
2021/03/23 12:49:11;;;;;;;6.77;3.87;;;12.50;50.40;;;;;;5026808;28;20228;-71
2021/03/23 12:51:40;;;;;;;5.93;3.27;;;12.30;50.40;;;;;;5021147;28;20222;-73
2021/03/23 12:54:14;;;;;;;8.60;3.43;;;12.20;50.50;;;;;;5034313;28;20306;-73
2021/03/23 12:56:41;;;;;;;7.13;3.20;;;12.10;50.40;;;;;;5034176;28;20700;-72
2021/03/23 12:59:16;;;;;;;7.20;3.30;;;12.00;50.40;;;;;;5035091;28;20615;-74
2021/03/23 13:01:42;;;;;;;5.40;3.00;;;11.80;50.20;;;;;;5034821;28;20663;-72
2021/03/23 13:04:11;;;;;;;6.30;3.43;;;11.70;50.50;;;;;;5035099;28;20207;-70
2021/03/23 13:06:37;;;;;;;5.33;3.43;;;11.60;50.80;;;;;;5032927;28;20237;-71
2021/03/23 13:09:04;;;;;;;7.37;3.30;;;11.50;51.20;;;;;;5032488;28;20640;-70
2021/03/23 13:11:31;;;;;;;7.67;3.50;;;11.40;51.70;;;;;;5032233;28;20231;-71
2021/03/23 13:14:01;;;;;;;5.80;3.60;;;11.30;51.90;;;;;;5031993;28;20241;-72